6E7234 / VT-IYK 7700 Squawk Report (25th of October, 2020)

Aircraft AT76 Reg No. VT-IYK Age N/A
Model ATR 72 Turboprop engines 2 First flight N/A
Registered 04-09-18 Rollout N/A Delivered 04-09-18
Construction No. 1502 Line No. N/A Series 600
ADSHEX 800CE1 Airline name IndiGo Owner N/A
Airfield based New Delhi-Indira Ghandhi~Delhi~VT First tracked N/A

Flight history for VT-IYK

Route Flight No Date Playback
???? N/A 2020-11-30 07:59:00
Rajiv Gandhi International Airport (HYD) - Kolhapur (KLH) 6E7994 2020-11-28 09:01:00
Rajiv Gandhi International Airport (HYD) - Aurangabad (IXU) 6E7346 2020-11-27 13:19:00
Ahmedabad (AMD) - Devi Ahilyabai Holkar (IDR) - Raipur (RPR) 6E7296 2020-11-26 11:19:00
Raipur (RPR) - Devi Ahilyabai Holkar (IDR) - Ahmedabad (AMD) 6E7295 2020-11-26 09:26:00
Rajiv Gandhi International Airport (HYD) - Mangalore (IXE) 6E7146 2020-11-25 13:16:00
???? N/A 2020-11-24 08:05:00
???? N/A 2020-11-24 06:41:00
Mangalore (IXE) - Rajiv Gandhi International Airport (HYD) 6E7147 2020-11-23 13:23:00
Kempegowda International Airport (BLR) - Rajiv Gandhi International Airport (HYD) 6E7684 2020-11-22 15:26:00
Hubli Airport (HBX) - Kempegowda International Airport (BLR) 6E7161 2020-11-22 11:00:00
Kempegowda International Airport (BLR) - Hubli Airport (HBX) 6E7162 2020-11-22 10:31:00
Tuticorin Airport (TCR) - Kempegowda International Airport (BLR) 6E7242 2020-11-22 08:15:00
Kempegowda International Airport (BLR) - Tuticorin Airport (TCR) 6E7241 2020-11-22 04:27:00
Rajiv Gandhi International Airport (HYD) - Kempegowda International Airport (BLR) 6E6916 2020-11-22 02:10:00
Rajiv Gandhi International Airport (HYD) - Aurangabad (IXU) 6E7346 2020-11-21 16:00:00
Bhopal (BHO) - Rajiv Gandhi International Airport (HYD) 6E7122 2020-11-20 09:07:00
Rajiv Gandhi International Airport (HYD) - Bhopal (BHO) 6E7121 2020-11-20 07:49:00
Ahmedabad (AMD) - Devi Ahilyabai Holkar (IDR) - Raipur (RPR) 6E7296 2020-11-18 12:06:00
Raipur (RPR) - Devi Ahilyabai Holkar (IDR) - Ahmedabad (AMD) 6E7295 2020-11-18 09:26:00
Time Lat Lon Altitude Heading Speed Vertical Rate
2020-10-25 03:21:52 GMT 10.891781 78.725380 2,450 113 220 -1152
2020-10-25 03:21:40 GMT 10.896669 78.714249 2,650 114 222 -1088
2020-10-25 03:21:24 GMT 10.903744 78.698830 2,950 115 226 -1088
2020-10-25 03:21:13 GMT 10.908679 78.688370 3,150 115 227 -1024
2020-10-25 03:21:02 GMT 10.914451 78.677628 3,350 124 229 -1216
2020-10-25 03:20:51 GMT 10.921967 78.668312 3,575 130 233 -1088
2020-10-25 03:20:38 GMT 10.930978 78.657578 3,825 130 234 -1088
2020-10-25 03:20:29 GMT 10.937759 78.649750 4,000 131 235 -1088
2020-10-25 03:20:17 GMT 10.945999 78.640137 4,200 130 223 -1088
2020-10-25 03:20:06 GMT 10.953278 78.631706 4,400 131 220 -1088
2020-10-25 03:19:55 GMT 10.961105 78.622566 4,625 130 223 -1152
2020-10-25 03:19:44 GMT 10.968638 78.613686 4,825 130 226 -1088
2020-10-25 03:19:32 GMT 10.976624 78.604240 5,050 130 225 -1152
2020-10-25 03:19:21 GMT 10.984222 78.595291 5,250 130 224 -1088
2020-10-25 03:19:10 GMT 10.991821 78.586311 5,450 130 222 -1088
2020-10-25 03:18:59 GMT 10.999237 78.577538 5,650 130 220 -1088
2020-10-25 03:18:47 GMT 11.007294 78.568108 5,875 130 219 -1088
2020-10-25 03:18:36 GMT 11.014632 78.559525 6,075 130 219 -1088
2020-10-25 03:18:24 GMT 11.022406 78.550369 6,275 130 220 -1088
2020-10-25 03:18:13 GMT 11.029724 78.541641 6,475 130 220 -1088
2020-10-25 03:18:01 GMT 11.037582 78.532295 6,675 130 219 -1024
2020-10-25 03:17:51 GMT 11.044556 78.523926 6,875 130 217 -832
2020-10-25 03:17:40 GMT 11.051781 78.515335 7,000 130 219 -448
2020-10-25 03:17:28 GMT 11.059341 78.506264 7,100 129 221 -1152
2020-10-25 03:17:17 GMT 11.066940 78.497124 7,375 129 221 -1664
2020-10-25 03:17:06 GMT 11.074265 78.488258 7,675 130 223 -1728
2020-10-25 03:16:55 GMT 11.081853 78.479050 8,000 129 224 -1664
2020-10-25 03:16:43 GMT 11.089600 78.469521 8,325 129 225 -1664
2020-10-25 03:16:32 GMT 11.096843 78.460548 8,625 129 228 -1664
2020-10-25 03:16:18 GMT 11.106386 78.448891 9,025 129 230 -1664
2020-10-25 03:16:07 GMT 11.113998 78.439636 9,350 129 232 -1664
2020-10-25 03:15:56 GMT 11.121460 78.430496 9,650 129 235 -1664
2020-10-25 03:15:45 GMT 11.129471 78.420647 9,975 128 238 -1728
2020-10-25 03:15:34 GMT 11.137250 78.410774 10,300 128 241 -1728
2020-10-25 03:15:21 GMT 11.146133 78.399384 10,650 128 244 -1728
2020-10-25 03:15:11 GMT 11.153275 78.390480 10,925 129 244 -1664
2020-10-25 03:15:00 GMT 11.161318 78.380608 11,250 129 244 -1728
2020-10-25 03:14:53 GMT 11.167556 78.372948 11,500 129 243 -1664
2020-10-25 03:14:49 GMT 11.169434 78.370644 11,575 129 243 -1664
2020-10-25 03:14:38 GMT 11.177425 78.360657 11,875 128 243 -1728
2020-10-25 03:14:26 GMT 11.185991 78.350159 12,225 130 246 -1728
2020-10-25 03:14:16 GMT 11.194382 78.341560 12,525 137 250 -1728
2020-10-25 03:14:04 GMT 11.204425 78.332474 12,850 138 254 -1728
2020-10-25 03:13:53 GMT 11.214249 78.323570 13,175 138 257 -1728
2020-10-25 03:13:41 GMT 11.225560 78.313393 13,525 138 260 -1792
2020-10-25 03:13:35 GMT 11.231964 78.307655 13,750 138 262 -1728
2020-10-25 03:13:30 GMT 11.235626 78.304344 13,850 138 262 -1600
2020-10-25 03:13:23 GMT 11.242040 78.298599 14,050 138 262 -1536
2020-10-25 03:13:18 GMT 11.246043 78.294983 14,150 138 263 -1536
2020-10-25 03:13:14 GMT 11.251373 78.290184 14,300 138 263 -1536
2020-10-25 03:13:07 GMT 11.256750 78.285439 14,475 138 264 -1536
2020-10-25 03:13:02 GMT 11.261173 78.281441 14,575 138 263 -1600
2020-10-25 03:12:55 GMT 11.267303 78.275833 14,775 137 259 -1600
2020-10-25 03:12:51 GMT 11.270920 78.272568 14,875 138 257 -1600
2020-10-25 03:12:42 GMT 11.280075 78.264420 15,150 140 256 -1408
2020-10-25 03:12:31 GMT 11.289688 78.257317 15,375 147 258 -1472
2020-10-25 03:12:26 GMT 11.295342 78.253929 15,500 150 258 -1536
2020-10-25 03:12:21 GMT 11.300975 78.251038 15,650 155 259 -1472
2020-10-25 03:12:09 GMT 11.313721 78.245575 15,925 157 261 -1536
2020-10-25 03:12:00 GMT 11.325027 78.240791 16,175 157 264 -1536
2020-10-25 03:11:48 GMT 11.336884 78.235771 16,450 157 266 -1536
2020-10-25 03:11:37 GMT 11.349930 78.230278 16,725 157 268 -1600
2020-10-25 03:11:26 GMT 11.363401 78.224487 17,025 157 271 -1536
2020-10-25 03:11:18 GMT 11.373276 78.220383 17,300 157 274 -1408
2020-10-25 03:11:14 GMT 11.377350 78.218681 17,375 157 275 -1408
2020-10-25 03:11:06 GMT 11.386352 78.214951 17,550 157 275 -1472
2020-10-25 03:11:02 GMT 11.390579 78.213135 17,650 157 273 -1408
2020-10-25 03:10:57 GMT 11.398781 78.209694 17,800 157 269 -1344
2020-10-25 03:10:51 GMT 11.403390 78.207764 17,900 157 265 -1024
2020-10-25 03:10:44 GMT 11.411362 78.204422 18,000 157 261 -192
2020-10-25 03:10:40 GMT 11.416331 78.202324 18,000 157 260 -64
2020-10-25 03:10:35 GMT 11.422848 78.199577 18,000 157 261 -64
2020-10-25 03:10:29 GMT 11.429040 78.196976 18,000 157 261 0
2020-10-25 03:10:23 GMT 11.435257 78.194336 18,000 157 261 0
2020-10-25 03:10:17 GMT 11.442633 78.191238 18,000 157 261 64
2020-10-25 03:10:14 GMT 11.446426 78.189606 18,000 157 262 64
2020-10-25 03:10:06 GMT 11.454364 78.186279 18,000 157 262 0
2020-10-25 03:10:03 GMT 11.457733 78.184868 18,000 157 263 0
2020-10-25 03:09:53 GMT 11.469955 78.179703 18,000 157 263 0
2020-10-25 03:09:42 GMT 11.481970 78.174660 18,000 157 264 64
2020-10-25 03:09:32 GMT 11.493701 78.169746 18,000 157 265 -128
2020-10-25 03:09:28 GMT 11.498310 78.167824 18,000 157 265 -128
2020-10-25 03:09:21 GMT 11.505432 78.164833 18,000 157 264 64
2020-10-25 03:09:10 GMT 11.518327 78.159340 18,000 157 264 0
2020-10-25 03:08:58 GMT 11.531296 78.153847 18,000 157 265 0
2020-10-25 03:08:48 GMT 11.543655 78.148590 18,000 157 265 -64
2020-10-25 03:08:40 GMT 11.553893 78.144302 18,000 157 265 64
2020-10-25 03:08:36 GMT 11.557059 78.142960 18,000 157 265 0
2020-10-25 03:08:29 GMT 11.565298 78.139488 18,000 157 265 -64
2020-10-25 03:08:25 GMT 11.569767 78.137611 18,000 157 265 -64
2020-10-25 03:08:19 GMT 11.577402 78.134377 18,000 157 265 0
2020-10-25 03:08:14 GMT 11.582291 78.132301 18,000 157 265 64
2020-10-25 03:08:08 GMT 11.589459 78.129272 18,000 157 265 0
2020-10-25 03:08:02 GMT 11.595428 78.126762 18,000 157 265 0
2020-10-25 03:07:58 GMT 11.601334 78.124298 18,000 157 265 0
2020-10-25 03:07:51 GMT 11.607971 78.121460 18,000 157 265 0
2020-10-25 03:07:47 GMT 11.613107 78.119301 18,000 157 265 0
2020-10-25 03:07:40 GMT 11.620789 78.116074 18,000 157 266 0
2020-10-25 03:07:36 GMT 11.626144 78.113785 18,000 157 266 0
2020-10-25 03:07:28 GMT 11.634018 78.110474 18,000 157 266 -64
2020-10-25 03:07:25 GMT 11.637589 78.108955 18,000 157 266 -64
2020-10-25 03:07:16 GMT 11.649536 78.103889 18,000 157 266 128
2020-10-25 03:07:07 GMT 11.658783 78.100006 17,975 157 268 -64
2020-10-25 03:07:04 GMT 11.662220 78.098534 18,000 157 268 -64
2020-10-25 03:06:55 GMT 11.673812 78.093613 18,000 157 268 -64
2020-10-25 03:06:43 GMT 11.686478 78.088310 18,000 157 267 -64
2020-10-25 03:06:32 GMT 11.698380 78.083244 18,000 157 267 0
2020-10-25 03:06:21 GMT 11.711519 78.077713 18,000 157 267 64
2020-10-25 03:06:13 GMT 11.722086 78.073280 18,000 157 267 0
2020-10-25 03:06:10 GMT 11.724367 78.072319 18,000 157 267 0
2020-10-25 03:06:01 GMT 11.734314 78.068092 18,000 157 267 0
2020-10-25 03:05:55 GMT 11.742142 78.064819 18,000 157 267 64
2020-10-25 03:05:52 GMT 11.746033 78.063164 18,000 157 267 0
2020-10-25 03:05:44 GMT 11.753835 78.059837 18,000 157 267 0
2020-10-25 03:05:40 GMT 11.758490 78.057907 18,000 157 267 -64
2020-10-25 03:05:33 GMT 11.766776 78.054390 18,000 157 267 0
2020-10-25 03:05:29 GMT 11.772270 78.052032 18,000 157 267 0
2020-10-25 03:05:24 GMT 11.777573 78.049812 18,000 157 267 0
2020-10-25 03:05:19 GMT 11.783066 78.047493 18,000 157 267 0
2020-10-25 03:05:12 GMT 11.791123 78.044083 18,000 157 267 -64
2020-10-25 03:05:09 GMT 11.794601 78.042610 18,000 157 267 -64
2020-10-25 03:05:03 GMT 11.801468 78.039680 18,000 157 267 -64
2020-10-25 03:04:58 GMT 11.806503 78.037544 18,000 157 267 0
2020-10-25 03:04:52 GMT 11.813701 78.034538 18,000 157 267 64
2020-10-25 03:04:47 GMT 11.819148 78.032227 18,000 157 267 64
2020-10-25 03:04:38 GMT 11.831177 78.027130 18,000 157 268 0
2020-10-25 03:04:32 GMT 11.837163 78.024612 18,000 157 268 0
2020-10-25 03:04:27 GMT 11.843169 78.022057 18,000 157 268 64
2020-10-25 03:04:22 GMT 11.848892 78.019646 18,000 157 268 0
2020-10-25 03:04:15 GMT 11.856529 78.016418 18,000 157 268 0
2020-10-25 03:04:11 GMT 11.860886 78.014534 18,000 157 268 -64
2020-10-25 03:04:04 GMT 11.868759 78.011215 18,000 157 268 0
2020-10-25 03:04:01 GMT 11.872971 78.009468 18,000 157 268 -64
2020-10-25 03:03:56 GMT 11.879654 78.006622 18,000 157 268 0
2020-10-25 03:03:50 GMT 11.884964 78.004395 18,000 157 268 0
2020-10-25 03:03:45 GMT 11.891693 78.001511 18,000 157 268 0
2020-10-25 03:03:40 GMT 11.897681 77.998978 18,000 157 268 0
2020-10-25 03:03:35 GMT 11.904152 77.996231 18,000 157 268 0
2020-10-25 03:03:30 GMT 11.908905 77.994217 18,000 157 268 0
2020-10-25 03:03:24 GMT 11.916163 77.991173 18,000 157 269 0
2020-10-25 03:03:20 GMT 11.920578 77.989288 18,000 157 269 0
2020-10-25 03:03:14 GMT 11.928220 77.986069 18,000 157 269 0
2020-10-25 03:03:09 GMT 11.933340 77.983894 18,000 157 269 0
2020-10-25 03:03:02 GMT 11.940742 77.980713 18,000 157 269 0
2020-10-25 03:02:57 GMT 11.946991 77.978119 18,000 157 270 0
2020-10-25 03:02:53 GMT 11.952799 77.975655 18,000 157 270 64
2020-10-25 03:02:49 GMT 11.956238 77.974182 18,000 157 269 0
2020-10-25 03:02:41 GMT 11.964856 77.970551 18,000 157 270 0
2020-10-25 03:02:38 GMT 11.968323 77.969070 18,000 157 270 0
2020-10-25 03:02:32 GMT 11.977158 77.965332 18,000 157 270 0
2020-10-25 03:02:28 GMT 11.980957 77.963722 18,000 157 270 0
2020-10-25 03:02:23 GMT 11.986038 77.961540 18,000 157 270 0
2020-10-25 03:02:18 GMT 11.992538 77.958794 18,000 157 270 0
2020-10-25 03:02:11 GMT 12.001586 77.954987 18,000 157 270 64
2020-10-25 03:02:08 GMT 12.004623 77.953682 18,000 157 270 0
2020-10-25 03:01:59 GMT 12.013962 77.949753 18,000 157 270 0
2020-10-25 03:01:56 GMT 12.017212 77.948380 18,000 157 270 0
2020-10-25 03:01:50 GMT 12.025131 77.945015 18,000 157 270 0
2020-10-25 03:01:47 GMT 12.028610 77.943550 18,000 157 270 0
2020-10-25 03:01:37 GMT 12.040690 77.938408 18,000 157 270 0
2020-10-25 03:01:26 GMT 12.052793 77.933250 18,000 157 271 0
2020-10-25 03:01:16 GMT 12.064682 77.928253 18,000 157 271 0
2020-10-25 03:01:06 GMT 12.076813 77.923088 18,000 157 270 0
2020-10-25 03:00:57 GMT 12.090547 77.917305 18,000 157 270 0
2020-10-25 03:00:44 GMT 12.101028 77.912865 18,000 157 270 0
2020-10-25 03:00:35 GMT 12.112939 77.907814 18,000 157 270 0
2020-10-25 03:00:31 GMT 12.116867 77.906136 18,000 157 270 -64
2020-10-25 03:00:24 GMT 12.124996 77.902702 18,000 157 270 0
2020-10-25 03:00:20 GMT 12.129418 77.900826 18,000 157 270 0
2020-10-25 03:00:14 GMT 12.136734 77.897758 18,000 157 270 64
2020-10-25 03:00:09 GMT 12.142593 77.895287 18,000 157 270 64
2020-10-25 03:00:04 GMT 12.149156 77.892487 18,000 157 270 64
2020-10-25 02:59:58 GMT 12.155457 77.889801 18,000 157 270 64
2020-10-25 02:59:53 GMT 12.160812 77.887527 18,000 157 270 64
2020-10-25 02:59:45 GMT 12.169639 77.883766 18,000 157 270 0
2020-10-25 02:59:42 GMT 12.173080 77.882317 18,000 157 270 -64
2020-10-25 02:59:33 GMT 12.185421 77.877068 18,000 157 269 -64
2020-10-25 02:59:21 GMT 12.197708 77.871849 18,000 157 269 0
2020-10-25 02:59:11 GMT 12.210000 77.866661 18,000 157 269 0
2020-10-25 02:59:01 GMT 12.222243 77.861458 18,000 157 268 0
2020-10-25 02:58:49 GMT 12.235325 77.855911 18,000 157 268 0
2020-10-25 02:58:38 GMT 12.247894 77.850571 18,000 157 268 0
2020-10-25 02:58:29 GMT 12.258415 77.846085 18,000 157 268 0
2020-10-25 02:58:26 GMT 12.261534 77.844788 18,000 157 268 0
2020-10-25 02:58:19 GMT 12.270937 77.840782 18,000 157 267 -128
2020-10-25 02:58:15 GMT 12.273926 77.839508 18,000 157 267 -128
2020-10-25 02:58:08 GMT 12.282855 77.835777 18,025 157 266 0
2020-10-25 02:58:04 GMT 12.286718 77.834084 18,025 157 266 128
2020-10-25 02:57:58 GMT 12.294983 77.830605 18,000 157 266 64
2020-10-25 02:57:53 GMT 12.299846 77.828545 18,000 157 266 0
2020-10-25 02:57:47 GMT 12.306931 77.825539 18,000 157 266 0
2020-10-25 02:57:41 GMT 12.312648 77.823097 18,000 157 266 0
2020-10-25 02:57:37 GMT 12.318607 77.820595 18,000 157 266 0
2020-10-25 02:57:29 GMT 12.327824 77.816742 18,000 157 266 64
2020-10-25 02:57:25 GMT 12.331100 77.815262 18,000 157 266 64
2020-10-25 02:57:16 GMT 12.343326 77.810089 18,000 157 265 64
2020-10-25 02:57:08 GMT 12.351519 77.806618 17,975 157 265 -64
2020-10-25 02:57:05 GMT 12.354950 77.805130 17,975 157 265 -128
2020-10-25 02:56:55 GMT 12.366806 77.800110 18,000 157 264 -64
2020-10-25 02:56:47 GMT 12.375000 77.796608 18,000 157 264 -64
2020-10-25 02:56:43 GMT 12.379303 77.794807 18,000 157 263 -64
2020-10-25 02:56:37 GMT 12.386573 77.791733 18,000 157 263 64
2020-10-25 02:56:34 GMT 12.391088 77.789803 18,000 157 263 128
2020-10-25 02:56:26 GMT 12.398304 77.786720 18,000 157 263 -64
2020-10-25 02:56:21 GMT 12.404205 77.784195 18,000 157 263 -64
2020-10-25 02:56:16 GMT 12.410156 77.781685 18,000 157 261 0
2020-10-25 02:56:13 GMT 12.414642 77.779793 18,000 157 260 64
2020-10-25 02:56:06 GMT 12.421487 77.776894 18,000 157 260 0
2020-10-25 02:55:59 GMT 12.428833 77.773735 18,000 157 258 64
2020-10-25 02:55:55 GMT 12.433228 77.771889 18,000 157 257 0
2020-10-25 02:55:49 GMT 12.440094 77.768951 18,000 157 256 0
2020-10-25 02:55:45 GMT 12.444305 77.767197 18,000 157 255 0
2020-10-25 02:55:41 GMT 12.449791 77.764847 18,000 157 254 64
2020-10-25 02:55:34 GMT 12.455887 77.762222 18,000 157 253 0
2020-10-25 02:55:30 GMT 12.461014 77.760048 18,000 157 252 0
2020-10-25 02:55:25 GMT 12.466969 77.757523 18,000 157 251 64
2020-10-25 02:55:20 GMT 12.473007 77.754929 17,975 157 249 0
2020-10-25 02:55:14 GMT 12.478141 77.752747 17,975 157 247 -64
2020-10-25 02:55:08 GMT 12.483856 77.750336 18,000 157 245 -64
2020-10-25 02:55:03 GMT 12.489258 77.748070 18,000 157 244 -64
2020-10-25 02:54:59 GMT 12.494807 77.745712 18,000 157 242 0
2020-10-25 02:54:53 GMT 12.500015 77.743523 18,000 157 240 0
2020-10-25 02:54:48 GMT 12.505554 77.741196 18,000 158 238 0
2020-10-25 02:54:43 GMT 12.510452 77.739212 18,000 158 236 -64
2020-10-25 02:54:38 GMT 12.516174 77.736893 18,000 158 233 0
2020-10-25 02:54:33 GMT 12.520981 77.734947 18,000 158 231 128
2020-10-25 02:54:26 GMT 12.527207 77.732513 18,000 159 228 256
2020-10-25 02:54:22 GMT 12.531956 77.730682 17,975 159 227 512
2020-10-25 02:54:17 GMT 12.537735 77.728462 17,925 158 226 512
2020-10-25 02:54:12 GMT 12.541778 77.726875 17,875 158 226 576
2020-10-25 02:54:06 GMT 12.547440 77.724480 17,825 155 225 640
2020-10-25 02:54:02 GMT 12.551331 77.722687 17,775 155 225 704
2020-10-25 02:53:55 GMT 12.558397 77.719406 17,700 155 226 768
2020-10-25 02:53:51 GMT 12.561264 77.718140 17,650 155 225 768
2020-10-25 02:53:45 GMT 12.568034 77.715019 17,575 156 226 768
2020-10-25 02:53:41 GMT 12.571289 77.713593 17,525 156 227 768
2020-10-25 02:53:35 GMT 12.578415 77.710396 17,425 156 227 768
2020-10-25 02:53:31 GMT 12.580948 77.709236 17,400 156 227 768
2020-10-25 02:53:24 GMT 12.588043 77.706108 17,300 156 228 640
2020-10-25 02:53:21 GMT 12.591156 77.704735 17,275 156 229 640
2020-10-25 02:53:14 GMT 12.598206 77.701706 17,200 157 229 576
2020-10-25 02:53:11 GMT 12.601365 77.700371 17,175 157 228 512
2020-10-25 02:53:00 GMT 12.611526 77.696022 17,075 157 227 512
2020-10-25 02:52:50 GMT 12.621569 77.691986 16,975 163 225 640
2020-10-25 02:52:40 GMT 12.632182 77.689049 16,875 165 226 640
2020-10-25 02:52:35 GMT 12.636063 77.688019 16,825 165 226 640
2020-10-25 02:52:32 GMT 12.640503 77.686836 16,775 165 225 640
2020-10-25 02:52:29 GMT 12.642750 77.686203 16,750 165 225 640
2020-10-25 02:52:21 GMT 12.653503 77.683365 16,650 165 225 640
2020-10-25 02:52:09 GMT 12.663838 77.680565 16,550 165 224 640
2020-10-25 02:51:57 GMT 12.674312 77.677773 16,425 165 223 640
2020-10-25 02:51:48 GMT 12.684274 77.675072 16,325 165 222 640
2020-10-25 02:51:38 GMT 12.694519 77.672348 16,200 165 222 640
2020-10-25 02:51:29 GMT 12.703919 77.669823 16,100 165 221 704
2020-10-25 02:51:25 GMT 12.706512 77.669128 16,075 165 221 704
2020-10-25 02:51:17 GMT 12.714999 77.666832 15,975 165 221 640
2020-10-25 02:51:14 GMT 12.717699 77.666161 15,950 165 220 640
2020-10-25 02:51:07 GMT 12.725613 77.663994 15,850 165 219 704
2020-10-25 02:51:03 GMT 12.728531 77.663254 15,825 165 219 768
2020-10-25 02:50:56 GMT 12.736041 77.661194 15,725 165 219 704
2020-10-25 02:50:51 GMT 12.740387 77.660034 15,675 165 219 768
2020-10-25 02:50:45 GMT 12.745910 77.658546 15,600 165 219 704
2020-10-25 02:50:40 GMT 12.751077 77.657196 15,550 165 218 704
2020-10-25 02:50:36 GMT 12.756683 77.655678 15,475 165 218 832
2020-10-25 02:50:29 GMT 12.762436 77.654114 15,400 165 218 832
2020-10-25 02:50:25 GMT 12.766571 77.653023 15,350 165 218 896
2020-10-25 02:50:18 GMT 12.772631 77.651367 15,250 165 218 960
2020-10-25 02:50:15 GMT 12.776215 77.650452 15,175 165 219 1024
2020-10-25 02:50:07 GMT 12.784103 77.648293 15,050 165 220 832
2020-10-25 02:50:04 GMT 12.786987 77.647530 15,025 165 220 768
2020-10-25 02:49:54 GMT 12.797607 77.644691 14,875 165 219 768
2020-10-25 02:49:43 GMT 12.807778 77.641876 14,750 165 219 832
2020-10-25 02:49:33 GMT 12.818298 77.639030 14,600 165 219 832
2020-10-25 02:49:21 GMT 12.828873 77.636116 14,475 165 219 832
2020-10-25 02:49:12 GMT 12.839172 77.633514 14,325 167 218 832
2020-10-25 02:49:01 GMT 12.849609 77.631577 14,200 174 219 704
2020-10-25 02:48:58 GMT 12.852049 77.631516 14,150 180 219 832
2020-10-25 02:48:52 GMT 12.858147 77.631760 14,025 184 218 896
2020-10-25 02:48:47 GMT 12.863251 77.632095 14,000 184 218 832
2020-10-25 02:48:40 GMT 12.870902 77.632576 13,925 184 218 832
2020-10-25 02:48:36 GMT 12.874394 77.632767 13,850 184 218 896
2020-10-25 02:48:30 GMT 12.881470 77.633202 13,725 184 218 896
2020-10-25 02:48:20 GMT 12.890408 77.633781 13,600 184 217 832
2020-10-25 02:48:17 GMT 12.893646 77.633987 13,550 184 217 896
2020-10-25 02:48:09 GMT 12.903122 77.634560 13,425 184 217 960
2020-10-25 02:48:01 GMT 12.911179 77.635033 13,300 184 217 896
2020-10-25 02:47:55 GMT 12.916489 77.635361 13,225 184 217 832
2020-10-25 02:47:48 GMT 12.924591 77.635880 13,100 184 217 832
2020-10-25 02:47:40 GMT 12.931560 77.636284 13,025 184 216 704
2020-10-25 02:47:37 GMT 12.934616 77.636497 12,975 184 215 704
2020-10-25 02:47:30 GMT 12.942261 77.636971 12,875 184 214 832
2020-10-25 02:47:27 GMT 12.945014 77.637154 12,850 184 213 768
2020-10-25 02:47:18 GMT 12.953339 77.637634 12,750 184 212 832
2020-10-25 02:47:15 GMT 12.956279 77.637825 12,700 184 212 832
2020-10-25 02:47:08 GMT 12.962357 77.638252 12,600 184 211 896
2020-10-25 02:47:04 GMT 12.968010 77.638596 12,525 184 211 896
2020-10-25 02:46:59 GMT 12.972565 77.638916 12,450 184 210 896
2020-10-25 02:46:54 GMT 12.976089 77.639099 12,400 184 210 896
2020-10-25 02:46:48 GMT 12.982773 77.639580 12,300 184 210 832
2020-10-25 02:46:45 GMT 12.987076 77.639862 12,225 184 209 768
2020-10-25 02:46:37 GMT 12.993118 77.640289 12,150 184 208 768
2020-10-25 02:46:33 GMT 12.997467 77.640572 12,100 184 207 832
2020-10-25 02:46:28 GMT 13.003111 77.640961 12,000 184 206 832
2020-10-25 02:46:24 GMT 13.006881 77.641197 11,950 184 205 896
2020-10-25 02:46:17 GMT 13.012848 77.641609 11,875 184 205 832
2020-10-25 02:46:13 GMT 13.016844 77.641876 11,800 184 204 768
2020-10-25 02:46:10 GMT 13.019257 77.642036 11,775 184 203 768
2020-10-25 02:46:07 GMT 13.022278 77.642181 11,725 183 203 768
2020-10-25 02:46:03 GMT 13.026855 77.642372 11,675 182 201 960
2020-10-25 02:45:57 GMT 13.032120 77.642418 11,575 178 201 1152
2020-10-25 02:45:51 GMT 13.036560 77.641899 11,475 167 201 1088
2020-10-25 02:45:46 GMT 13.041609 77.640282 11,375 158 202 1152
2020-10-25 02:45:42 GMT 13.045944 77.638390 11,275 156 201 1152
2020-10-25 02:45:36 GMT 13.050268 77.636475 11,175 156 202 1152
2020-10-25 02:45:29 GMT 13.056227 77.633827 11,050 156 203 1088
2020-10-25 02:45:26 GMT 13.059718 77.632286 10,975 156 203 1088
2020-10-25 02:45:19 GMT 13.064327 77.630211 10,875 156 203 1088
2020-10-25 02:45:15 GMT 13.068283 77.628448 10,800 156 202 1024
2020-10-25 02:45:09 GMT 13.073502 77.626175 10,700 156 202 960
2020-10-25 02:45:04 GMT 13.077667 77.624329 10,625 156 202 896
2020-10-25 02:44:58 GMT 13.082994 77.621971 10,525 156 201 960
2020-10-25 02:44:55 GMT 13.086639 77.620354 10,475 156 200 832
2020-10-25 02:44:51 GMT 13.088860 77.619370 10,425 156 199 704
2020-10-25 02:44:48 GMT 13.091721 77.618080 10,375 156 199 640
2020-10-25 02:44:44 GMT 13.095284 77.616531 10,350 156 197 320
2020-10-25 02:44:38 GMT 13.100143 77.614334 10,325 156 192 192
2020-10-25 02:44:34 GMT 13.103524 77.612869 10,300 156 187 192
2020-10-25 02:44:27 GMT 13.108383 77.610687 10,275 156 180 192
2020-10-25 02:44:24 GMT 13.111588 77.609268 10,275 156 175 192
2020-10-25 02:44:17 GMT 13.116326 77.607178 10,250 156 165 832
2020-10-25 02:44:13 GMT 13.118958 77.606003 10,200 156 162 1216
2020-10-25 02:44:07 GMT 13.123588 77.603951 10,075 156 162 1280
2020-10-25 02:44:03 GMT 13.126190 77.602783 10,000 156 161 1344
2020-10-25 02:43:53 GMT 13.133829 77.599373 9,725 156 161 1344
2020-10-25 02:43:46 GMT 13.138367 77.597382 9,575 156 162 1344
2020-10-25 02:43:42 GMT 13.140440 77.596436 9,525 156 162 1344
2020-10-25 02:43:35 GMT 13.145325 77.594254 9,350 156 161 1344
2020-10-25 02:43:32 GMT 13.147476 77.593262 9,275 156 161 1344
2020-10-25 02:43:22 GMT 13.154709 77.589996 9,050 155 162 1344
2020-10-25 02:43:14 GMT 13.159882 77.587677 8,875 155 161 1344
2020-10-25 02:43:11 GMT 13.161667 77.586823 8,825 155 161 1280
2020-10-25 02:43:04 GMT 13.167297 77.584267 8,650 156 159 1216
2020-10-25 02:43:01 GMT 13.168945 77.583511 8,575 156 159 1216
2020-10-25 02:42:51 GMT 13.176052 77.580391 8,375 157 157 1216
2020-10-25 02:42:43 GMT 13.181639 77.578224 8,200 164 156 1280
2020-10-25 02:42:39 GMT 13.183456 77.577827 8,150 170 158 1280
2020-10-25 02:42:30 GMT 13.190716 77.578461 7,950 200 160 1280
2020-10-25 02:42:20 GMT 13.196960 77.582748 7,700 230 163 1536
2020-10-25 02:42:09 GMT 13.200577 77.589996 7,425 260 165 1536
2020-10-25 02:41:58 GMT 13.201051 77.598366 7,150 271 166 1536
2020-10-25 02:41:49 GMT 13.200958 77.606262 6,925 271 167 1536
2020-10-25 02:41:38 GMT 13.200865 77.614502 6,625 274 166 1408
2020-10-25 02:41:28 GMT 13.199887 77.622551 6,425 278 164 1408
2020-10-25 02:41:18 GMT 13.198883 77.630531 6,175 278 162 1408
2020-10-25 02:41:06 GMT 13.197830 77.638771 5,925 278 161 1408
2020-10-25 02:40:57 GMT 13.196908 77.646164 5,700 278 158 1472
2020-10-25 02:40:47 GMT 13.195884 77.654160 5,425 278 156 1536
2020-10-25 02:40:36 GMT 13.194906 77.661484 5,175 278 154 1600
2020-10-25 02:40:25 GMT 13.193848 77.669502 4,850 278 154 1536
2020-10-25 02:40:16 GMT 13.192904 77.676613 4,475 278 153 1920
2020-10-25 02:40:04 GMT 13.191742 77.684471 4,325 279 149 768
2020-10-25 02:39:54 GMT 13.190716 77.691551 4,200 278 137 1088
2020-10-25 02:39:43 GMT 13.189971 77.698105 3,975 276 130 1664
2020-10-25 02:39:33 GMT 13.189545 77.704453 3,675 271 122 2176

Making use of Plane Finder data

You are free to use the raw flight data, aircraft information and images provided in this report for your own purposes provided the data is correctly attributed to Plane Finder. We ask that you please credit Plane Finder and link to planefinder.net in close proximity to the content.

Optionally one of the following logos (no smaller then 150x24px) can be used and must link to planefinder.net

Embedding the Plane Finder map

You are welcome to embed the Plane Finder playback map on your website to offer visitors a more interactive experience. We suggest using the following HTML code:

<iframe src="//planefinder.net/data/report/6E7234-VT-IYK-7700-squawk-2020-10-25/map" width="800" height="600" seamless="seamless"></iframe>

Where our data comes from

Plane Finder has a global network of data feeds and antenna radars that receive data broadcast directly from aircraft. The primary technologies used are ADS-B and MLAT. We also show feeds from the FAA and a FLARM glider feed.

Click here to find out more about the Plane Finder network.

How we collect our data